createdAt,value
2018-07-19T00:01:04.380Z,59.50
2018-07-19T00:03:32.593Z,59.10
2018-07-19T00:06:00.797Z,59.10
2018-07-19T00:08:29.004Z,59.20
2018-07-19T00:10:57.213Z,60.50
2018-07-19T00:13:25.457Z,61.00
2018-07-19T00:15:53.697Z,60.90
2018-07-19T00:18:25.179Z,61.50
2018-07-19T00:20:54.297Z,62.40
2018-07-19T00:23:22.837Z,62.60
2018-07-19T00:25:51.246Z,63.10
2018-07-19T00:28:19.465Z,63.00
2018-07-19T00:30:47.682Z,63.00
2018-07-19T00:33:15.957Z,63.20
2018-07-19T00:35:44.273Z,63.80
2018-07-19T00:38:12.629Z,64.10
2018-07-19T00:40:40.841Z,64.00
2018-07-19T00:43:09.142Z,63.90
2018-07-19T00:45:37.337Z,62.20
2018-07-19T00:48:05.569Z,61.90
2018-07-19T00:50:33.850Z,61.30
2018-07-19T00:53:02.506Z,61.40
2018-07-19T00:55:30.697Z,62.50
2018-07-19T00:57:59.013Z,63.30
2018-07-19T01:00:27.285Z,64.40
2018-07-19T01:02:55.481Z,63.90
2018-07-19T01:05:23.710Z,65.30
2018-07-19T01:07:51.933Z,65.20
2018-07-19T01:10:20.113Z,65.60
2018-07-19T01:12:48.322Z,66.00
2018-07-19T01:15:16.533Z,66.30
2018-07-19T01:17:44.765Z,67.30
2018-07-19T01:20:13.001Z,67.60
2018-07-19T01:22:41.222Z,67.90
2018-07-19T01:25:09.429Z,68.20
2018-07-19T01:27:37.622Z,68.90
2018-07-19T01:30:06.065Z,69.40
2018-07-19T01:32:34.410Z,69.70
2018-07-19T01:35:02.628Z,68.80
2018-07-19T01:37:30.941Z,70.00
2018-07-19T01:39:59.138Z,70.00
2018-07-19T01:42:34.803Z,69.70
2018-07-19T01:45:03.014Z,69.90
2018-07-19T01:47:31.194Z,69.50
2018-07-19T01:49:59.378Z,69.70
2018-07-19T01:52:27.610Z,69.70
2018-07-19T01:54:55.790Z,69.40
2018-07-19T01:59:51.945Z,69.70
2018-07-19T02:02:20.343Z,69.60
2018-07-19T02:04:48.550Z,70.50
2018-07-19T02:07:16.738Z,69.40
2018-07-19T02:09:44.950Z,69.70
2018-07-19T02:12:13.174Z,69.00
2018-07-19T02:14:41.364Z,68.60
2018-07-19T02:17:09.538Z,69.00
2018-07-19T02:19:37.732Z,69.50
2018-07-19T02:22:05.928Z,69.40
2018-07-19T02:24:34.132Z,69.40
2018-07-19T02:27:02.395Z,69.30
2018-07-19T02:29:30.595Z,69.40
2018-07-19T02:31:58.780Z,69.10
2018-07-19T02:34:26.986Z,70.00
2018-07-19T02:36:55.175Z,70.70
2018-07-19T02:39:23.367Z,71.00
2018-07-19T02:41:51.595Z,70.70
2018-07-19T02:44:19.811Z,71.50
2018-07-19T02:46:47.990Z,71.50
2018-07-19T02:49:16.168Z,71.60
2018-07-19T02:51:44.427Z,72.80
2018-07-19T02:54:12.869Z,71.30
2018-07-19T02:56:41.111Z,71.70
2018-07-19T02:59:09.303Z,71.80
2018-07-19T03:01:37.495Z,72.10
2018-07-19T03:04:05.663Z,71.70
2018-07-19T03:06:33.913Z,71.40
2018-07-19T03:09:02.037Z,70.70
2018-07-19T03:11:30.232Z,70.90
2018-07-19T03:13:58.431Z,71.20
2018-07-19T03:16:26.640Z,71.70
2018-07-19T03:18:54.895Z,71.00
2018-07-19T03:21:23.076Z,71.00
2018-07-19T03:23:51.284Z,71.30
2018-07-19T03:26:19.492Z,71.50
2018-07-19T03:28:47.691Z,71.70
2018-07-19T03:31:15.881Z,72.00
2018-07-19T03:33:44.179Z,72.10
2018-07-19T03:36:12.372Z,72.30
2018-07-19T03:38:40.595Z,72.50
2018-07-19T03:41:08.816Z,73.20
2018-07-19T03:43:37.044Z,73.10
2018-07-19T03:46:05.348Z,73.00
2018-07-19T03:48:33.569Z,73.60
2018-07-19T03:51:01.772Z,73.60
2018-07-19T03:53:29.999Z,73.80
2018-07-19T03:55:58.296Z,74.10
2018-07-19T03:58:26.488Z,73.80
2018-07-19T04:00:54.769Z,73.90
2018-07-19T04:03:22.968Z,74.30
2018-07-19T04:05:51.177Z,74.30
2018-07-19T04:08:19.385Z,74.70
2018-07-19T04:10:47.597Z,75.30
2018-07-19T04:13:15.817Z,76.40
2018-07-19T04:15:44.032Z,76.40
2018-07-19T04:18:12.301Z,76.30
2018-07-19T04:20:40.488Z,76.00
2018-07-19T04:23:08.661Z,75.40
2018-07-19T04:25:36.849Z,75.40
2018-07-19T04:28:05.038Z,74.50
2018-07-19T04:30:33.280Z,75.20
2018-07-19T04:33:01.500Z,75.40
2018-07-19T04:35:29.802Z,75.30
2018-07-19T04:37:57.974Z,75.70
2018-07-19T04:40:26.218Z,75.90
2018-07-19T04:42:54.447Z,75.90
2018-07-19T04:45:22.658Z,76.10
2018-07-19T04:47:50.911Z,76.20
2018-07-19T04:50:19.098Z,76.00
2018-07-19T04:52:47.455Z,76.40
2018-07-19T04:55:15.734Z,75.80
2018-07-19T04:57:43.946Z,75.90
2018-07-19T05:00:12.215Z,75.40
2018-07-19T05:02:40.619Z,74.50
2018-07-19T05:05:08.863Z,74.90
2018-07-19T05:07:37.143Z,75.00
2018-07-19T05:10:05.430Z,72.60
2018-07-19T05:12:33.647Z,72.00
2018-07-19T05:15:01.867Z,71.50
2018-07-19T05:17:30.115Z,71.30
2018-07-19T05:19:58.331Z,71.20
2018-07-19T05:22:26.559Z,70.90
2018-07-19T05:24:55.095Z,70.30
2018-07-19T05:27:23.335Z,69.20
2018-07-19T05:29:51.631Z,68.70
2018-07-19T05:32:19.859Z,67.80
2018-07-19T05:34:48.112Z,67.40
2018-07-19T05:37:16.335Z,66.30
2018-07-19T05:39:44.564Z,66.60
2018-07-19T05:42:12.893Z,67.20
2018-07-19T05:44:41.072Z,67.30
2018-07-19T05:47:09.360Z,66.60
2018-07-19T05:49:37.552Z,67.30
2018-07-19T05:52:05.792Z,67.60
2018-07-19T05:54:34.004Z,67.20
2018-07-19T05:57:02.207Z,67.80
2018-07-19T05:59:30.456Z,66.40
2018-07-19T06:01:58.720Z,66.00
2018-07-19T06:04:26.991Z,65.40
2018-07-19T06:06:55.457Z,64.90
2018-07-19T06:09:23.756Z,64.70
2018-07-19T06:11:52.005Z,63.60
2018-07-19T06:14:20.276Z,64.20
2018-07-19T06:16:48.524Z,63.40
2018-07-19T06:19:16.949Z,62.00
2018-07-19T06:21:45.224Z,62.30
2018-07-19T06:24:13.459Z,60.90
2018-07-19T06:26:41.665Z,60.00
2018-07-19T06:29:09.856Z,59.00
2018-07-19T06:31:38.089Z,59.40
2018-07-19T06:36:34.297Z,58.00
2018-07-19T06:39:02.817Z,57.50
2018-07-19T06:41:31.113Z,58.20
2018-07-19T06:43:59.396Z,57.70
2018-07-19T06:46:27.707Z,57.00
2018-07-19T06:48:55.981Z,56.30
2018-07-19T06:51:24.205Z,55.70
2018-07-19T06:53:52.436Z,55.60
2018-07-19T06:56:20.712Z,55.90
2018-07-19T06:58:48.960Z,53.40
2018-07-19T07:01:17.265Z,52.10
2018-07-19T07:03:45.502Z,51.40
2018-07-19T07:06:13.713Z,51.50
2018-07-19T07:08:41.953Z,49.30
2018-07-19T07:11:10.165Z,49.50
2018-07-19T07:13:38.429Z,48.80
2018-07-19T07:16:06.658Z,47.40
2018-07-19T07:18:34.861Z,46.90
2018-07-19T07:21:03.131Z,45.60
2018-07-19T07:23:31.340Z,45.10
2018-07-19T07:25:59.605Z,45.80
2018-07-19T07:28:27.851Z,43.70
2018-07-19T07:30:56.097Z,43.60
2018-07-19T07:33:24.317Z,41.70
2018-07-19T07:35:52.530Z,42.10
2018-07-19T07:38:20.969Z,42.70
2018-07-19T07:40:49.509Z,42.50
2018-07-19T07:43:17.694Z,42.90
2018-07-19T07:45:45.906Z,42.80
2018-07-19T07:48:14.177Z,41.70
2018-07-19T07:50:42.392Z,41.90
2018-07-19T07:53:10.697Z,41.60
2018-07-19T07:55:38.946Z,42.20
2018-07-19T07:58:07.132Z,42.50
2018-07-19T08:00:35.626Z,42.10
2018-07-19T08:03:03.874Z,42.00
2018-07-19T08:05:32.153Z,42.00
2018-07-19T08:08:00.349Z,40.90
2018-07-19T08:10:28.550Z,41.60
2018-07-19T08:12:56.694Z,41.50
2018-07-19T08:15:24.916Z,41.20
2018-07-19T08:17:53.111Z,41.10
2018-07-19T08:20:21.914Z,41.80
2018-07-19T08:22:50.130Z,42.10
2018-07-19T08:25:18.514Z,42.70
2018-07-19T08:27:46.737Z,42.40
2018-07-19T08:30:15.045Z,41.10
2018-07-19T08:32:43.240Z,41.50
2018-07-19T08:35:11.434Z,42.20
2018-07-19T08:37:39.647Z,42.20
2018-07-19T08:40:07.886Z,41.50
2018-07-19T08:42:36.139Z,41.40
2018-07-19T08:45:04.739Z,41.10
2018-07-19T08:47:32.967Z,40.80
2018-07-19T08:50:01.143Z,41.10
2018-07-19T08:52:29.423Z,40.40
2018-07-19T08:54:57.615Z,40.40
2018-07-19T08:57:25.803Z,39.80
2018-07-19T08:59:54.105Z,40.20
2018-07-19T09:02:22.455Z,40.60
2018-07-19T09:04:50.683Z,39.20
2018-07-19T09:07:18.886Z,39.50
2018-07-19T09:09:47.102Z,39.90
2018-07-19T09:12:15.403Z,38.80
2018-07-19T09:14:43.843Z,37.80
2018-07-19T09:17:12.123Z,37.30
2018-07-19T09:19:40.357Z,38.30
2018-07-19T09:22:08.554Z,37.40
2018-07-19T09:24:36.823Z,37.30
2018-07-19T09:27:04.999Z,37.60
2018-07-19T09:29:33.190Z,37.40
2018-07-19T09:32:01.439Z,36.00
2018-07-19T09:34:29.703Z,36.30
2018-07-19T09:36:57.957Z,36.80
2018-07-19T09:39:26.168Z,38.40
2018-07-19T09:41:54.473Z,35.60
2018-07-19T09:44:22.635Z,35.00
2018-07-19T09:46:50.791Z,35.00
2018-07-19T09:49:18.979Z,34.80
2018-07-19T09:51:47.152Z,34.80
2018-07-19T09:54:26.763Z,34.00
2018-07-19T09:56:55.035Z,34.30
2018-07-19T09:59:23.387Z,33.20
2018-07-19T10:01:51.564Z,33.70
2018-07-19T10:04:19.787Z,33.00
2018-07-19T10:06:48.035Z,33.80
2018-07-19T10:09:16.288Z,34.20
2018-07-19T10:11:44.584Z,33.70
2018-07-19T10:14:12.790Z,33.60
2018-07-19T10:16:41.028Z,33.60
2018-07-19T10:19:09.220Z,34.70
2018-07-19T10:21:37.415Z,33.70
2018-07-19T10:24:05.584Z,33.50
2018-07-19T10:26:33.833Z,33.00
2018-07-19T10:29:01.961Z,32.70
2018-07-19T10:31:30.116Z,32.90
2018-07-19T10:33:58.700Z,32.10
2018-07-19T10:36:27.027Z,32.50
2018-07-19T10:38:55.217Z,32.90
2018-07-19T10:41:23.476Z,32.50
2018-07-19T10:43:51.660Z,32.20
2018-07-19T10:46:19.952Z,32.10
2018-07-19T10:48:48.175Z,32.10
2018-07-19T10:51:16.367Z,32.30
2018-07-19T10:53:44.569Z,32.10
2018-07-19T10:56:12.803Z,32.30
2018-07-19T10:58:40.984Z,32.20
2018-07-19T11:01:09.393Z,32.00
2018-07-19T11:03:37.568Z,31.80
2018-07-19T11:06:05.785Z,31.90
2018-07-19T11:08:34.042Z,31.40
2018-07-19T11:11:02.244Z,31.40
2018-07-19T11:13:30.437Z,31.00
2018-07-19T11:15:58.617Z,31.80
2018-07-19T11:20:54.820Z,33.70
2018-07-19T11:23:23.469Z,31.40
2018-07-19T11:25:51.693Z,31.30
2018-07-19T11:28:19.943Z,31.20
2018-07-19T11:30:48.089Z,31.70
2018-07-19T11:33:16.305Z,32.20
2018-07-19T11:35:44.514Z,31.80
2018-07-19T11:38:12.684Z,31.50
2018-07-19T11:40:40.898Z,31.30
2018-07-19T11:43:09.106Z,31.50
2018-07-19T11:45:37.285Z,31.20
2018-07-19T11:48:06.073Z,31.30
2018-07-19T11:50:34.346Z,31.50
2018-07-19T11:53:02.545Z,31.50
2018-07-19T11:55:30.834Z,31.80
2018-07-19T11:57:59.486Z,31.80
2018-07-19T12:00:27.677Z,33.30
2018-07-19T12:02:55.937Z,31.50
2018-07-19T12:05:24.141Z,30.80
2018-07-19T12:07:52.366Z,30.50
2018-07-19T12:10:20.554Z,30.20
2018-07-19T12:12:48.781Z,30.90
2018-07-19T12:15:16.983Z,31.00
2018-07-19T12:17:45.317Z,31.90
2018-07-19T12:20:13.656Z,32.60
2018-07-19T12:22:41.994Z,32.90
2018-07-19T12:25:10.195Z,33.30
2018-07-19T12:27:38.429Z,33.50
2018-07-19T12:30:07.142Z,34.00
2018-07-19T12:32:35.334Z,31.20
2018-07-19T12:35:03.506Z,31.50
2018-07-19T12:37:31.710Z,29.80
2018-07-19T12:39:59.922Z,29.30
2018-07-19T12:42:28.098Z,29.50
2018-07-19T12:44:56.313Z,30.10
2018-07-19T12:47:24.506Z,30.10
2018-07-19T12:49:52.694Z,30.20
2018-07-19T12:52:20.882Z,30.70
2018-07-19T12:54:49.055Z,30.50
2018-07-19T12:57:17.303Z,30.00
2018-07-19T12:59:45.493Z,29.30
2018-07-19T13:02:13.807Z,30.30
2018-07-19T13:04:42.047Z,28.90
2018-07-19T13:07:10.263Z,29.20
2018-07-19T13:09:38.518Z,29.90
2018-07-19T13:12:06.700Z,29.90
2018-07-19T13:14:34.898Z,30.20
2018-07-19T13:17:03.159Z,30.00
2018-07-19T13:19:31.390Z,29.00
2018-07-19T13:21:59.611Z,29.20
2018-07-19T13:24:27.811Z,29.70
2018-07-19T13:26:55.994Z,29.80
2018-07-19T13:29:24.199Z,29.40
2018-07-19T13:31:52.439Z,28.20
2018-07-19T13:34:20.635Z,27.90
2018-07-19T13:36:48.851Z,28.90
2018-07-19T13:39:17.051Z,28.00
2018-07-19T13:41:45.335Z,28.60
2018-07-19T13:44:13.501Z,28.60
2018-07-19T13:46:41.711Z,28.50
2018-07-19T13:49:09.923Z,28.60
2018-07-19T13:51:38.287Z,27.90
2018-07-19T13:56:41.263Z,29.20
2018-07-19T13:59:09.585Z,28.80
2018-07-19T14:01:37.927Z,28.90
2018-07-19T14:04:06.328Z,29.40
2018-07-19T14:06:34.512Z,30.20
2018-07-19T14:09:03.130Z,30.80
2018-07-19T14:11:31.329Z,30.00
2018-07-19T14:14:01.585Z,30.00
2018-07-19T14:16:29.792Z,29.20
2018-07-19T14:18:57.977Z,29.00
2018-07-19T14:21:26.156Z,29.20
2018-07-19T14:23:54.484Z,29.00
2018-07-19T14:26:22.730Z,29.90
2018-07-19T14:28:50.893Z,29.40
2018-07-19T14:31:19.065Z,29.70
2018-07-19T14:33:47.241Z,29.70
2018-07-19T14:36:15.417Z,29.10
2018-07-19T14:38:43.609Z,29.60
2018-07-19T14:41:11.861Z,30.20
2018-07-19T14:43:40.104Z,29.80
2018-07-19T14:46:08.401Z,30.00
2018-07-19T14:48:36.605Z,31.10
2018-07-19T14:51:04.801Z,29.80
2018-07-19T14:53:33.025Z,29.50
2018-07-19T14:56:01.217Z,29.30
2018-07-19T14:58:29.412Z,29.30
2018-07-19T15:00:57.617Z,28.90
2018-07-19T15:03:25.769Z,29.00
2018-07-19T15:05:53.981Z,29.00
2018-07-19T15:08:22.193Z,28.50
2018-07-19T15:10:50.369Z,28.20
2018-07-19T15:13:18.590Z,28.40
2018-07-19T15:15:46.789Z,28.50
2018-07-19T15:18:14.956Z,28.90
2018-07-19T15:20:43.112Z,29.10
2018-07-19T15:23:11.380Z,29.10
2018-07-19T15:25:39.757Z,29.30
2018-07-19T15:28:07.941Z,29.40
2018-07-19T15:30:36.264Z,30.00
2018-07-19T15:33:04.463Z,29.90
2018-07-19T15:35:32.697Z,30.20
2018-07-19T15:38:00.989Z,31.10
2018-07-19T15:40:29.170Z,31.50
2018-07-19T15:42:58.361Z,30.80
2018-07-19T15:45:26.534Z,30.70
2018-07-19T15:47:54.722Z,30.90
2018-07-19T15:50:22.976Z,32.10
2018-07-19T15:52:51.117Z,31.20
2018-07-19T15:55:19.416Z,30.90
2018-07-19T15:57:47.546Z,30.30
2018-07-19T16:00:15.736Z,30.20
2018-07-19T16:02:43.914Z,31.50
2018-07-19T16:05:12.177Z,30.40
2018-07-19T16:07:40.371Z,31.40
2018-07-19T16:10:08.666Z,31.00
2018-07-19T16:12:36.850Z,31.20
2018-07-19T16:15:05.459Z,30.70
2018-07-19T16:17:33.638Z,30.80
2018-07-19T16:20:01.822Z,30.70
2018-07-19T16:22:30.011Z,31.20
2018-07-19T16:24:58.395Z,31.00
2018-07-19T16:27:26.594Z,32.20
2018-07-19T16:29:55.151Z,31.50
2018-07-19T16:32:23.400Z,31.30
2018-07-19T16:34:51.542Z,32.20
2018-07-19T16:37:19.739Z,33.00
2018-07-19T16:39:47.923Z,32.30
2018-07-19T16:42:16.187Z,32.00
2018-07-19T16:44:44.370Z,31.70
2018-07-19T16:47:12.551Z,31.50
2018-07-19T16:49:40.747Z,31.80
2018-07-19T16:52:08.927Z,31.70
2018-07-19T16:54:37.136Z,31.50
2018-07-19T16:57:05.944Z,31.10
2018-07-19T16:59:34.215Z,30.70
2018-07-19T17:02:02.385Z,31.00
2018-07-19T17:04:30.628Z,31.20
2018-07-19T17:06:58.823Z,30.80
2018-07-19T17:11:55.012Z,32.00
2018-07-19T17:14:23.179Z,31.40
2018-07-19T17:16:51.431Z,31.70
2018-07-19T17:19:19.604Z,31.70
2018-07-19T17:21:47.791Z,31.20
2018-07-19T17:24:15.982Z,31.30
2018-07-19T17:26:44.148Z,31.50
2018-07-19T17:29:12.360Z,31.40
2018-07-19T17:31:40.555Z,31.80
2018-07-19T17:34:08.754Z,31.80
2018-07-19T17:36:36.947Z,31.70
2018-07-19T17:39:07.776Z,31.40
2018-07-19T17:41:35.963Z,31.70
2018-07-19T17:44:04.163Z,32.20
2018-07-19T17:46:32.335Z,32.20
2018-07-19T17:49:00.568Z,32.40
2018-07-19T17:51:28.746Z,32.30
2018-07-19T17:53:56.895Z,32.80
2018-07-19T17:56:25.080Z,33.30
2018-07-19T17:58:53.271Z,33.00
2018-07-19T18:01:21.439Z,32.90
2018-07-19T18:03:49.627Z,33.20
2018-07-19T18:06:17.864Z,33.50
2018-07-19T18:08:46.020Z,33.40
2018-07-19T18:11:14.187Z,33.90
2018-07-19T18:13:42.344Z,33.80
2018-07-19T18:18:45.187Z,34.20
2018-07-19T18:21:13.344Z,34.50
2018-07-19T18:23:41.500Z,34.70
2018-07-19T18:26:09.700Z,34.20
2018-07-19T18:28:37.932Z,34.10
2018-07-19T18:31:06.437Z,34.20
2018-07-19T18:33:34.617Z,34.10
2018-07-19T18:36:02.865Z,33.60
2018-07-19T18:38:31.182Z,33.80
2018-07-19T18:40:59.365Z,34.10
2018-07-19T18:43:27.630Z,34.50
2018-07-19T18:46:02.568Z,34.70
2018-07-19T18:48:30.756Z,34.90
2018-07-19T18:50:58.988Z,35.10
2018-07-19T18:53:28.040Z,35.90
2018-07-19T19:13:11.861Z,36.50
2018-07-19T19:15:40.069Z,39.10
2018-07-19T19:18:08.237Z,39.00
2018-07-19T19:20:36.413Z,39.30
2018-07-19T19:23:04.609Z,39.30
2018-07-19T19:25:32.794Z,39.40
2018-07-19T19:28:01.000Z,39.90
2018-07-19T19:30:29.193Z,40.50
2018-07-19T19:32:57.389Z,41.20
2018-07-19T19:35:25.573Z,41.40
2018-07-19T19:37:53.758Z,41.00
2018-07-19T19:40:21.957Z,41.20
2018-07-19T19:42:50.113Z,41.60
2018-07-19T19:45:18.321Z,41.70
2018-07-19T19:47:46.482Z,42.20
2018-07-19T19:50:14.654Z,42.60
2018-07-19T19:52:42.882Z,42.50
2018-07-19T19:55:11.069Z,42.50
2018-07-19T19:57:39.257Z,42.80
2018-07-19T20:00:07.430Z,42.80
2018-07-19T20:05:03.562Z,42.90
2018-07-19T20:07:31.742Z,42.50
2018-07-19T20:09:59.990Z,42.90
2018-07-19T20:12:28.145Z,43.10
2018-07-19T20:14:56.362Z,43.40
2018-07-19T20:17:25.786Z,43.50
2018-07-19T20:19:53.953Z,44.10
2018-07-19T20:22:22.158Z,43.90
2018-07-19T20:24:50.302Z,44.50
2018-07-19T20:27:18.617Z,44.30
2018-07-19T20:29:46.822Z,44.70
2018-07-19T20:32:14.998Z,43.80
2018-07-19T20:34:43.175Z,44.60
2018-07-19T20:37:11.413Z,45.30
2018-07-19T20:39:39.694Z,45.80
2018-07-19T20:42:07.906Z,46.50
2018-07-19T20:44:36.094Z,46.80
2018-07-19T20:47:04.282Z,46.90
2018-07-19T20:49:32.543Z,47.80
2018-07-19T20:52:00.814Z,47.40
2018-07-19T20:54:28.979Z,47.90
2018-07-19T21:19:10.983Z,48.30
2018-07-19T21:21:39.159Z,51.50
2018-07-19T21:24:07.348Z,51.40
2018-07-19T21:26:35.532Z,51.70
2018-07-19T21:29:04.007Z,52.40
2018-07-19T21:31:32.195Z,51.90
2018-07-19T21:34:00.365Z,52.30
2018-07-19T21:36:28.557Z,52.40
2018-07-19T21:38:56.783Z,52.40
2018-07-19T21:41:24.956Z,52.60
2018-07-19T21:43:53.160Z,52.90
2018-07-19T21:46:21.330Z,52.90
2018-07-19T21:48:49.481Z,53.30
2018-07-19T21:51:17.953Z,53.10
2018-07-19T21:53:46.174Z,53.20
2018-07-19T21:56:14.342Z,53.30
2018-07-19T21:58:42.492Z,53.30
2018-07-19T22:01:12.237Z,53.70
2018-07-19T22:03:40.621Z,54.00
2018-07-19T22:06:09.501Z,54.20
